sensor_id;sensor_type;location;lat;lon;timestamp;P1;durP1;ratioP1;P2;durP2;ratioP2
71366;SDS011;60030;52.274;8.040;2022-10-16T00:01:07;3.77;;;2.80;;
71366;SDS011;60030;52.274;8.040;2022-10-16T00:03:36;4.93;;;2.67;;
71366;SDS011;60030;52.274;8.040;2022-10-16T00:06:03;5.70;;;3.37;;
71366;SDS011;60030;52.274;8.040;2022-10-16T00:08:33;4.40;;;2.70;;
71366;SDS011;60030;52.274;8.040;2022-10-16T00:11:01;5.87;;;2.87;;
71366;SDS011;60030;52.274;8.040;2022-10-16T00:13:30;7.03;;;3.40;;
71366;SDS011;60030;52.274;8.040;2022-10-16T00:15:58;5.50;;;3.50;;
71366;SDS011;60030;52.274;8.040;2022-10-16T00:18:26;5.70;;;3.17;;
71366;SDS011;60030;52.274;8.040;2022-10-16T00:20:53;7.93;;;3.37;;
71366;SDS011;60030;52.274;8.040;2022-10-16T00:23:40;7.77;;;3.13;;
71366;SDS011;60030;52.274;8.040;2022-10-16T00:26:09;4.67;;;2.80;;
71366;SDS011;60030;52.274;8.040;2022-10-16T00:28:38;10.47;;;3.60;;
71366;SDS011;60030;52.274;8.040;2022-10-16T00:31:06;6.53;;;3.70;;
71366;SDS011;60030;52.274;8.040;2022-10-16T00:33:34;7.93;;;3.30;;
71366;SDS011;60030;52.274;8.040;2022-10-16T00:36:03;7.20;;;3.37;;
71366;SDS011;60030;52.274;8.040;2022-10-16T00:38:32;6.77;;;3.90;;
71366;SDS011;60030;52.274;8.040;2022-10-16T00:41:01;4.87;;;3.50;;
71366;SDS011;60030;52.274;8.040;2022-10-16T00:43:35;9.37;;;3.80;;
71366;SDS011;60030;52.274;8.040;2022-10-16T00:46:05;6.13;;;4.30;;
71366;SDS011;60030;52.274;8.040;2022-10-16T00:48:39;6.97;;;4.40;;
71366;SDS011;60030;52.274;8.040;2022-10-16T00:51:07;5.47;;;4.17;;
71366;SDS011;60030;52.274;8.040;2022-10-16T00:53:34;5.83;;;4.10;;
71366;SDS011;60030;52.274;8.040;2022-10-16T00:56:04;8.33;;;4.60;;
71366;SDS011;60030;52.274;8.040;2022-10-16T00:58:32;9.27;;;6.43;;
71366;SDS011;60030;52.274;8.040;2022-10-16T01:00:59;12.13;;;6.13;;
71366;SDS011;60030;52.274;8.040;2022-10-16T01:03:27;10.10;;;7.23;;
71366;SDS011;60030;52.274;8.040;2022-10-16T01:06:05;12.87;;;6.97;;
71366;SDS011;60030;52.274;8.040;2022-10-16T01:08:52;12.77;;;9.07;;
71366;SDS011;60030;52.274;8.040;2022-10-16T01:11:31;8.77;;;5.40;;
71366;SDS011;60030;52.274;8.040;2022-10-16T01:14:05;10.07;;;5.23;;
71366;SDS011;60030;52.274;8.040;2022-10-16T01:16:38;7.03;;;4.70;;
71366;SDS011;60030;52.274;8.040;2022-10-16T01:19:12;9.90;;;4.87;;
71366;SDS011;60030;52.274;8.040;2022-10-16T01:21:43;13.23;;;4.90;;
71366;SDS011;60030;52.274;8.040;2022-10-16T01:24:15;9.47;;;4.93;;
71366;SDS011;60030;52.274;8.040;2022-10-16T01:26:58;9.17;;;4.70;;
71366;SDS011;60030;52.274;8.040;2022-10-16T01:29:37;7.13;;;4.87;;
71366;SDS011;60030;52.274;8.040;2022-10-16T01:32:10;7.33;;;4.40;;
71366;SDS011;60030;52.274;8.040;2022-10-16T01:34:46;6.70;;;4.60;;
71366;SDS011;60030;52.274;8.040;2022-10-16T01:37:20;6.97;;;4.90;;
71366;SDS011;60030;52.274;8.040;2022-10-16T01:39:53;7.00;;;4.43;;
71366;SDS011;60030;52.274;8.040;2022-10-16T01:42:26;9.37;;;5.43;;
71366;SDS011;60030;52.274;8.040;2022-10-16T01:44:58;11.10;;;5.30;;
71366;SDS011;60030;52.274;8.040;2022-10-16T01:47:28;9.20;;;5.30;;
71366;SDS011;60030;52.274;8.040;2022-10-16T01:49:58;8.27;;;4.63;;
71366;SDS011;60030;52.274;8.040;2022-10-16T01:52:26;10.73;;;6.00;;
71366;SDS011;60030;52.274;8.040;2022-10-16T01:54:56;14.87;;;6.17;;
71366;SDS011;60030;52.274;8.040;2022-10-16T01:57:27;10.00;;;5.67;;
71366;SDS011;60030;52.274;8.040;2022-10-16T01:59:56;9.33;;;5.73;;
71366;SDS011;60030;52.274;8.040;2022-10-16T02:02:38;8.83;;;5.53;;
71366;SDS011;60030;52.274;8.040;2022-10-16T02:05:08;10.00;;;5.40;;
71366;SDS011;60030;52.274;8.040;2022-10-16T02:07:42;15.00;;;5.80;;
71366;SDS011;60030;52.274;8.040;2022-10-16T02:10:10;9.00;;;5.40;;
71366;SDS011;60030;52.274;8.040;2022-10-16T02:12:40;8.10;;;5.07;;
71366;SDS011;60030;52.274;8.040;2022-10-16T02:15:10;9.20;;;5.27;;
71366;SDS011;60030;52.274;8.040;2022-10-16T02:17:37;11.57;;;5.37;;
71366;SDS011;60030;52.274;8.040;2022-10-16T02:20:05;8.53;;;5.57;;
71366;SDS011;60030;52.274;8.040;2022-10-16T02:22:33;10.30;;;6.10;;
71366;SDS011;60030;52.274;8.040;2022-10-16T02:25:05;10.50;;;5.73;;
71366;SDS011;60030;52.274;8.040;2022-10-16T02:27:35;9.87;;;5.83;;
71366;SDS011;60030;52.274;8.040;2022-10-16T02:30:08;10.20;;;5.70;;
71366;SDS011;60030;52.274;8.040;2022-10-16T02:32:40;6.20;;;4.77;;
71366;SDS011;60030;52.274;8.040;2022-10-16T02:35:10;10.53;;;5.83;;
71366;SDS011;60030;52.274;8.040;2022-10-16T02:37:38;9.10;;;5.80;;
71366;SDS011;60030;52.274;8.040;2022-10-16T02:40:08;8.57;;;6.43;;
71366;SDS011;60030;52.274;8.040;2022-10-16T02:42:37;10.10;;;5.63;;
71366;SDS011;60030;52.274;8.040;2022-10-16T02:45:07;8.33;;;5.67;;
71366;SDS011;60030;52.274;8.040;2022-10-16T02:47:36;7.67;;;5.50;;
71366;SDS011;60030;52.274;8.040;2022-10-16T02:50:03;14.77;;;6.07;;
71366;SDS011;60030;52.274;8.040;2022-10-16T02:52:31;11.90;;;5.80;;
71366;SDS011;60030;52.274;8.040;2022-10-16T02:54:58;9.73;;;5.57;;
71366;SDS011;60030;52.274;8.040;2022-10-16T02:57:25;8.87;;;6.03;;
71366;SDS011;60030;52.274;8.040;2022-10-16T02:59:54;7.13;;;5.20;;
71366;SDS011;60030;52.274;8.040;2022-10-16T03:02:21;6.73;;;5.23;;
71366;SDS011;60030;52.274;8.040;2022-10-16T03:04:48;6.87;;;5.20;;
71366;SDS011;60030;52.274;8.040;2022-10-16T03:07:15;12.03;;;5.87;;
71366;SDS011;60030;52.274;8.040;2022-10-16T03:09:42;8.50;;;5.60;;
71366;SDS011;60030;52.274;8.040;2022-10-16T03:12:09;9.27;;;5.30;;
71366;SDS011;60030;52.274;8.040;2022-10-16T03:14:37;7.60;;;5.03;;
71366;SDS011;60030;52.274;8.040;2022-10-16T03:17:06;9.60;;;5.20;;
71366;SDS011;60030;52.274;8.040;2022-10-16T03:19:33;8.43;;;4.70;;
71366;SDS011;60030;52.274;8.040;2022-10-16T03:22:01;5.53;;;4.77;;
71366;SDS011;60030;52.274;8.040;2022-10-16T03:24:28;7.93;;;4.93;;
71366;SDS011;60030;52.274;8.040;2022-10-16T03:26:55;7.10;;;4.97;;
71366;SDS011;60030;52.274;8.040;2022-10-16T03:29:22;7.70;;;4.73;;
71366;SDS011;60030;52.274;8.040;2022-10-16T03:31:51;7.83;;;4.77;;
71366;SDS011;60030;52.274;8.040;2022-10-16T03:34:19;7.97;;;5.27;;
71366;SDS011;60030;52.274;8.040;2022-10-16T03:36:46;8.20;;;4.90;;
71366;SDS011;60030;52.274;8.040;2022-10-16T03:39:13;6.07;;;4.17;;
71366;SDS011;60030;52.274;8.040;2022-10-16T03:41:41;7.00;;;4.73;;
71366;SDS011;60030;52.274;8.040;2022-10-16T03:44:08;9.17;;;4.50;;
71366;SDS011;60030;52.274;8.040;2022-10-16T03:46:35;7.97;;;5.00;;
71366;SDS011;60030;52.274;8.040;2022-10-16T03:49:02;7.63;;;5.17;;
71366;SDS011;60030;52.274;8.040;2022-10-16T03:51:30;7.10;;;4.30;;
71366;SDS011;60030;52.274;8.040;2022-10-16T03:53:57;7.07;;;4.73;;
71366;SDS011;60030;52.274;8.040;2022-10-16T03:56:25;6.40;;;4.07;;
71366;SDS011;60030;52.274;8.040;2022-10-16T03:58:52;7.67;;;4.73;;
71366;SDS011;60030;52.274;8.040;2022-10-16T04:01:19;7.87;;;4.23;;
71366;SDS011;60030;52.274;8.040;2022-10-16T04:03:46;7.67;;;4.37;;
71366;SDS011;60030;52.274;8.040;2022-10-16T04:06:14;6.60;;;3.70;;
71366;SDS011;60030;52.274;8.040;2022-10-16T04:08:43;7.90;;;4.30;;
71366;SDS011;60030;52.274;8.040;2022-10-16T04:11:10;6.80;;;4.03;;
71366;SDS011;60030;52.274;8.040;2022-10-16T04:13:37;4.97;;;4.00;;
71366;SDS011;60030;52.274;8.040;2022-10-16T04:16:05;5.50;;;3.80;;
71366;SDS011;60030;52.274;8.040;2022-10-16T04:18:32;5.77;;;3.60;;
71366;SDS011;60030;52.274;8.040;2022-10-16T04:21:02;6.40;;;3.40;;
71366;SDS011;60030;52.274;8.040;2022-10-16T04:23:29;4.60;;;3.40;;
71366;SDS011;60030;52.274;8.040;2022-10-16T04:25:58;5.57;;;3.30;;
71366;SDS011;60030;52.274;8.040;2022-10-16T04:28:25;4.83;;;3.47;;
71366;SDS011;60030;52.274;8.040;2022-10-16T04:30:53;4.00;;;3.37;;
71366;SDS011;60030;52.274;8.040;2022-10-16T04:33:20;6.87;;;3.53;;
71366;SDS011;60030;52.274;8.040;2022-10-16T04:35:47;4.27;;;3.47;;
71366;SDS011;60030;52.274;8.040;2022-10-16T04:38:14;4.70;;;3.40;;
71366;SDS011;60030;52.274;8.040;2022-10-16T04:40:41;6.43;;;3.30;;
71366;SDS011;60030;52.274;8.040;2022-10-16T04:43:10;5.00;;;3.17;;
71366;SDS011;60030;52.274;8.040;2022-10-16T04:45:37;3.67;;;2.73;;
71366;SDS011;60030;52.274;8.040;2022-10-16T04:48:04;3.80;;;2.67;;
71366;SDS011;60030;52.274;8.040;2022-10-16T04:50:31;3.07;;;2.70;;
71366;SDS011;60030;52.274;8.040;2022-10-16T04:53:05;3.43;;;2.70;;
71366;SDS011;60030;52.274;8.040;2022-10-16T04:55:32;7.47;;;3.60;;
71366;SDS011;60030;52.274;8.040;2022-10-16T04:57:59;4.10;;;2.83;;
71366;SDS011;60030;52.274;8.040;2022-10-16T05:00:27;4.20;;;2.87;;
71366;SDS011;60030;52.274;8.040;2022-10-16T05:02:55;4.97;;;2.90;;
71366;SDS011;60030;52.274;8.040;2022-10-16T05:05:22;4.07;;;2.70;;
71366;SDS011;60030;52.274;8.040;2022-10-16T05:07:49;4.23;;;2.47;;
71366;SDS011;60030;52.274;8.040;2022-10-16T05:10:16;3.17;;;2.53;;
71366;SDS011;60030;52.274;8.040;2022-10-16T05:12:44;4.20;;;2.77;;
71366;SDS011;60030;52.274;8.040;2022-10-16T05:15:11;7.37;;;2.97;;
71366;SDS011;60030;52.274;8.040;2022-10-16T05:17:39;5.40;;;2.70;;
71366;SDS011;60030;52.274;8.040;2022-10-16T05:20:07;3.17;;;2.30;;
71366;SDS011;60030;52.274;8.040;2022-10-16T05:22:34;4.60;;;3.00;;
71366;SDS011;60030;52.274;8.040;2022-10-16T05:25:01;3.53;;;2.60;;
71366;SDS011;60030;52.274;8.040;2022-10-16T05:27:28;2.97;;;2.30;;
71366;SDS011;60030;52.274;8.040;2022-10-16T05:29:55;4.47;;;2.93;;
71366;SDS011;60030;52.274;8.040;2022-10-16T05:32:22;5.00;;;2.83;;
71366;SDS011;60030;52.274;8.040;2022-10-16T05:34:50;4.87;;;2.20;;
71366;SDS011;60030;52.274;8.040;2022-10-16T05:37:17;3.43;;;2.30;;
71366;SDS011;60030;52.274;8.040;2022-10-16T05:39:45;6.80;;;2.73;;
71366;SDS011;60030;52.274;8.040;2022-10-16T05:42:12;4.87;;;2.33;;
71366;SDS011;60030;52.274;8.040;2022-10-16T05:44:39;3.83;;;2.63;;
71366;SDS011;60030;52.274;8.040;2022-10-16T05:47:06;4.00;;;2.43;;
71366;SDS011;60030;52.274;8.040;2022-10-16T05:49:33;2.73;;;2.27;;
71366;SDS011;60030;52.274;8.040;2022-10-16T05:52:02;5.37;;;2.67;;
71366;SDS011;60030;52.274;8.040;2022-10-16T05:54:29;3.03;;;2.13;;
71366;SDS011;60030;52.274;8.040;2022-10-16T05:56:56;4.43;;;2.27;;
71366;SDS011;60030;52.274;8.040;2022-10-16T05:59:23;4.87;;;2.50;;
71366;SDS011;60030;52.274;8.040;2022-10-16T06:01:51;3.07;;;2.30;;
71366;SDS011;60030;52.274;8.040;2022-10-16T06:04:19;6.87;;;2.07;;
71366;SDS011;60030;52.274;8.040;2022-10-16T06:06:46;4.97;;;2.20;;
71366;SDS011;60030;52.274;8.040;2022-10-16T06:09:14;4.97;;;2.30;;
71366;SDS011;60030;52.274;8.040;2022-10-16T06:11:41;3.97;;;2.27;;
71366;SDS011;60030;52.274;8.040;2022-10-16T06:14:08;4.60;;;2.10;;
71366;SDS011;60030;52.274;8.040;2022-10-16T06:16:36;7.03;;;2.20;;
71366;SDS011;60030;52.274;8.040;2022-10-16T06:19:04;5.07;;;2.10;;
71366;SDS011;60030;52.274;8.040;2022-10-16T06:21:33;3.77;;;2.10;;
71366;SDS011;60030;52.274;8.040;2022-10-16T06:24:00;3.73;;;1.93;;
71366;SDS011;60030;52.274;8.040;2022-10-16T06:26:29;4.00;;;2.20;;
71366;SDS011;60030;52.274;8.040;2022-10-16T06:28:57;2.10;;;1.90;;
71366;SDS011;60030;52.274;8.040;2022-10-16T06:31:26;3.50;;;1.80;;
71366;SDS011;60030;52.274;8.040;2022-10-16T06:33:56;3.03;;;1.97;;
71366;SDS011;60030;52.274;8.040;2022-10-16T06:36:24;3.20;;;2.10;;
71366;SDS011;60030;52.274;8.040;2022-10-16T06:38:52;3.80;;;1.60;;
71366;SDS011;60030;52.274;8.040;2022-10-16T06:41:19;2.43;;;1.83;;
71366;SDS011;60030;52.274;8.040;2022-10-16T06:43:49;2.20;;;1.70;;
71366;SDS011;60030;52.274;8.040;2022-10-16T06:46:19;3.93;;;2.10;;
71366;SDS011;60030;52.274;8.040;2022-10-16T06:48:47;3.10;;;1.70;;
71366;SDS011;60030;52.274;8.040;2022-10-16T06:51:15;2.73;;;1.80;;
71366;SDS011;60030;52.274;8.040;2022-10-16T06:53:44;3.30;;;1.60;;
71366;SDS011;60030;52.274;8.040;2022-10-16T06:56:13;6.93;;;2.03;;
71366;SDS011;60030;52.274;8.040;2022-10-16T06:58:41;3.27;;;1.57;;
71366;SDS011;60030;52.274;8.040;2022-10-16T07:01:10;4.40;;;2.67;;
71366;SDS011;60030;52.274;8.040;2022-10-16T07:03:38;8.40;;;2.07;;
71366;SDS011;60030;52.274;8.040;2022-10-16T07:06:07;5.53;;;2.87;;
71366;SDS011;60030;52.274;8.040;2022-10-16T07:08:36;5.70;;;2.20;;
71366;SDS011;60030;52.274;8.040;2022-10-16T07:11:05;5.13;;;2.67;;
71366;SDS011;60030;52.274;8.040;2022-10-16T07:13:34;3.47;;;2.00;;
71366;SDS011;60030;52.274;8.040;2022-10-16T07:16:03;3.00;;;1.80;;
71366;SDS011;60030;52.274;8.040;2022-10-16T07:18:32;2.60;;;2.00;;
71366;SDS011;60030;52.274;8.040;2022-10-16T07:21:03;2.27;;;1.87;;
71366;SDS011;60030;52.274;8.040;2022-10-16T07:23:31;2.60;;;1.83;;
71366;SDS011;60030;52.274;8.040;2022-10-16T07:25:58;7.83;;;3.53;;
71366;SDS011;60030;52.274;8.040;2022-10-16T07:28:25;4.43;;;2.77;;
71366;SDS011;60030;52.274;8.040;2022-10-16T07:30:53;2.10;;;1.60;;
71366;SDS011;60030;52.274;8.040;2022-10-16T07:33:20;2.43;;;2.20;;
71366;SDS011;60030;52.274;8.040;2022-10-16T07:35:50;3.10;;;1.60;;
71366;SDS011;60030;52.274;8.040;2022-10-16T07:38:18;3.93;;;1.67;;
71366;SDS011;60030;52.274;8.040;2022-10-16T07:40:45;2.33;;;1.50;;
71366;SDS011;60030;52.274;8.040;2022-10-16T07:43:12;2.40;;;1.70;;
71366;SDS011;60030;52.274;8.040;2022-10-16T07:45:46;2.77;;;1.60;;
71366;SDS011;60030;52.274;8.040;2022-10-16T07:48:14;2.30;;;1.37;;
71366;SDS011;60030;52.274;8.040;2022-10-16T07:50:42;3.70;;;1.70;;
71366;SDS011;60030;52.274;8.040;2022-10-16T07:53:10;3.40;;;1.87;;
71366;SDS011;60030;52.274;8.040;2022-10-16T07:55:38;3.07;;;1.70;;
71366;SDS011;60030;52.274;8.040;2022-10-16T07:58:05;3.10;;;1.67;;
71366;SDS011;60030;52.274;8.040;2022-10-16T08:00:33;3.87;;;1.80;;
71366;SDS011;60030;52.274;8.040;2022-10-16T08:03:01;2.97;;;1.80;;
71366;SDS011;60030;52.274;8.040;2022-10-16T08:05:29;3.00;;;1.73;;
71366;SDS011;60030;52.274;8.040;2022-10-16T08:07:59;4.93;;;1.80;;
71366;SDS011;60030;52.274;8.040;2022-10-16T08:10:28;3.80;;;1.70;;
71366;SDS011;60030;52.274;8.040;2022-10-16T08:12:56;3.93;;;2.70;;
71366;SDS011;60030;52.274;8.040;2022-10-16T08:15:24;5.63;;;2.77;;
71366;SDS011;60030;52.274;8.040;2022-10-16T08:17:55;3.30;;;2.20;;
71366;SDS011;60030;52.274;8.040;2022-10-16T08:20:23;2.70;;;1.73;;
71366;SDS011;60030;52.274;8.040;2022-10-16T08:22:50;3.67;;;1.80;;
71366;SDS011;60030;52.274;8.040;2022-10-16T08:25:17;2.70;;;1.80;;
71366;SDS011;60030;52.274;8.040;2022-10-16T08:27:45;4.80;;;1.87;;
71366;SDS011;60030;52.274;8.040;2022-10-16T08:30:13;7.93;;;1.90;;
71366;SDS011;60030;52.274;8.040;2022-10-16T08:32:41;2.47;;;1.73;;
71366;SDS011;60030;52.274;8.040;2022-10-16T08:35:08;4.00;;;1.67;;
71366;SDS011;60030;52.274;8.040;2022-10-16T08:37:35;4.77;;;1.60;;
71366;SDS011;60030;52.274;8.040;2022-10-16T08:40:04;2.50;;;1.93;;
71366;SDS011;60030;52.274;8.040;2022-10-16T08:42:37;6.20;;;1.60;;
71366;SDS011;60030;52.274;8.040;2022-10-16T08:45:23;3.93;;;1.90;;
71366;SDS011;60030;52.274;8.040;2022-10-16T08:48:05;3.03;;;1.50;;
71366;SDS011;60030;52.274;8.040;2022-10-16T08:50:43;2.33;;;1.83;;
71366;SDS011;60030;52.274;8.040;2022-10-16T08:53:19;2.73;;;2.03;;
71366;SDS011;60030;52.274;8.040;2022-10-16T08:55:50;5.53;;;2.30;;
71366;SDS011;60030;52.274;8.040;2022-10-16T08:58:19;3.23;;;1.90;;
71366;SDS011;60030;52.274;8.040;2022-10-16T09:00:49;3.33;;;1.83;;
71366;SDS011;60030;52.274;8.040;2022-10-16T09:03:25;5.10;;;2.57;;
71366;SDS011;60030;52.274;8.040;2022-10-16T09:06:13;2.70;;;1.50;;
71366;SDS011;60030;52.274;8.040;2022-10-16T09:08:56;3.10;;;1.50;;
71366;SDS011;60030;52.274;8.040;2022-10-16T09:11:38;5.40;;;1.87;;
71366;SDS011;60030;52.274;8.040;2022-10-16T09:14:17;3.77;;;1.57;;
71366;SDS011;60030;52.274;8.040;2022-10-16T09:17:07;3.70;;;1.47;;
71366;SDS011;60030;52.274;8.040;2022-10-16T09:19:46;3.70;;;1.30;;
71366;SDS011;60030;52.274;8.040;2022-10-16T09:22:18;2.13;;;1.60;;
71366;SDS011;60030;52.274;8.040;2022-10-16T09:24:51;1.63;;;1.23;;
71366;SDS011;60030;52.274;8.040;2022-10-16T09:27:18;8.53;;;1.40;;
71366;SDS011;60030;52.274;8.040;2022-10-16T09:29:45;3.73;;;1.40;;
71366;SDS011;60030;52.274;8.040;2022-10-16T09:32:14;3.13;;;1.40;;
71366;SDS011;60030;52.274;8.040;2022-10-16T09:34:45;7.37;;;1.80;;
71366;SDS011;60030;52.274;8.040;2022-10-16T09:37:16;2.70;;;1.47;;
71366;SDS011;60030;52.274;8.040;2022-10-16T09:39:45;4.93;;;1.60;;
71366;SDS011;60030;52.274;8.040;2022-10-16T09:42:14;3.27;;;1.23;;
71366;SDS011;60030;52.274;8.040;2022-10-16T09:44:42;2.60;;;1.23;;
71366;SDS011;60030;52.274;8.040;2022-10-16T09:47:17;4.80;;;1.30;;
71366;SDS011;60030;52.274;8.040;2022-10-16T09:49:50;3.10;;;1.30;;
71366;SDS011;60030;52.274;8.040;2022-10-16T09:52:18;3.43;;;1.20;;
71366;SDS011;60030;52.274;8.040;2022-10-16T09:54:49;2.50;;;1.00;;
71366;SDS011;60030;52.274;8.040;2022-10-16T09:57:17;3.00;;;1.23;;
71366;SDS011;60030;52.274;8.040;2022-10-16T09:59:45;3.17;;;1.10;;
71366;SDS011;60030;52.274;8.040;2022-10-16T10:02:14;3.20;;;1.20;;
71366;SDS011;60030;52.274;8.040;2022-10-16T10:04:47;3.57;;;1.30;;
71366;SDS011;60030;52.274;8.040;2022-10-16T10:07:21;2.47;;;2.23;;
71366;SDS011;60030;52.274;8.040;2022-10-16T10:09:52;6.10;;;2.60;;
71366;SDS011;60030;52.274;8.040;2022-10-16T10:12:20;2.03;;;1.10;;
71366;SDS011;60030;52.274;8.040;2022-10-16T10:14:49;1.90;;;0.90;;
71366;SDS011;60030;52.274;8.040;2022-10-16T10:17:19;3.83;;;0.83;;
71366;SDS011;60030;52.274;8.040;2022-10-16T10:19:49;4.47;;;1.03;;
71366;SDS011;60030;52.274;8.040;2022-10-16T10:22:29;6.67;;;1.20;;
71366;SDS011;60030;52.274;8.040;2022-10-16T10:25:07;4.03;;;1.27;;
71366;SDS011;60030;52.274;8.040;2022-10-16T10:27:58;2.80;;;0.70;;
71366;SDS011;60030;52.274;8.040;2022-10-16T10:30:34;4.17;;;1.10;;
71366;SDS011;60030;52.274;8.040;2022-10-16T10:33:12;3.33;;;0.90;;
71366;SDS011;60030;52.274;8.040;2022-10-16T10:35:45;2.17;;;0.90;;
71366;SDS011;60030;52.274;8.040;2022-10-16T10:38:20;2.10;;;0.80;;
71366;SDS011;60030;52.274;8.040;2022-10-16T10:41:01;3.17;;;0.90;;
71366;SDS011;60030;52.274;8.040;2022-10-16T10:43:47;3.10;;;0.97;;
71366;SDS011;60030;52.274;8.040;2022-10-16T10:46:23;2.60;;;1.07;;
71366;SDS011;60030;52.274;8.040;2022-10-16T10:49:03;2.53;;;1.20;;
71366;SDS011;60030;52.274;8.040;2022-10-16T10:51:43;1.00;;;0.90;;
71366;SDS011;60030;52.274;8.040;2022-10-16T10:54:20;3.20;;;0.93;;
71366;SDS011;60030;52.274;8.040;2022-10-16T10:56:56;3.13;;;0.97;;
71366;SDS011;60030;52.274;8.040;2022-10-16T10:59:36;2.60;;;0.80;;
71366;SDS011;60030;52.274;8.040;2022-10-16T11:02:22;2.33;;;1.13;;
71366;SDS011;60030;52.274;8.040;2022-10-16T11:07:55;2.37;;;0.97;;
71366;SDS011;60030;52.274;8.040;2022-10-16T11:10:27;3.33;;;0.97;;
71366;SDS011;60030;52.274;8.040;2022-10-16T11:12:58;3.87;;;1.17;;
71366;SDS011;60030;52.274;8.040;2022-10-16T11:15:41;2.87;;;0.90;;
71366;SDS011;60030;52.274;8.040;2022-10-16T11:18:11;4.23;;;1.00;;
71366;SDS011;60030;52.274;8.040;2022-10-16T11:20:47;5.70;;;1.07;;
71366;SDS011;60030;52.274;8.040;2022-10-16T11:23:20;1.77;;;0.90;;
71366;SDS011;60030;52.274;8.040;2022-10-16T11:25:52;2.20;;;1.00;;
71366;SDS011;60030;52.274;8.040;2022-10-16T11:28:23;1.70;;;1.03;;
71366;SDS011;60030;52.274;8.040;2022-10-16T11:30:57;3.80;;;0.90;;
71366;SDS011;60030;52.274;8.040;2022-10-16T11:33:30;3.07;;;1.13;;
71366;SDS011;60030;52.274;8.040;2022-10-16T11:36:06;4.20;;;1.43;;
71366;SDS011;60030;52.274;8.040;2022-10-16T11:38:39;1.97;;;1.07;;
71366;SDS011;60030;52.274;8.040;2022-10-16T11:41:14;1.83;;;0.90;;
71366;SDS011;60030;52.274;8.040;2022-10-16T11:43:48;2.77;;;1.03;;
71366;SDS011;60030;52.274;8.040;2022-10-16T11:46:21;4.83;;;1.43;;
71366;SDS011;60030;52.274;8.040;2022-10-16T11:48:53;2.80;;;1.70;;
71366;SDS011;60030;52.274;8.040;2022-10-16T11:51:26;3.63;;;1.47;;
71366;SDS011;60030;52.274;8.040;2022-10-16T11:54:02;3.13;;;1.90;;
71366;SDS011;60030;52.274;8.040;2022-10-16T11:56:37;2.85;;;1.67;;
71366;SDS011;60030;52.274;8.040;2022-10-16T11:59:07;5.87;;;1.70;;
71366;SDS011;60030;52.274;8.040;2022-10-16T12:01:44;3.23;;;1.60;;
71366;SDS011;60030;52.274;8.040;2022-10-16T12:04:17;3.22;;;2.03;;
71366;SDS011;60030;52.274;8.040;2022-10-16T12:06:51;3.67;;;1.90;;
71366;SDS011;60030;52.274;8.040;2022-10-16T12:09:24;5.97;;;1.77;;
71366;SDS011;60030;52.274;8.040;2022-10-16T12:11:54;3.67;;;1.73;;
71366;SDS011;60030;52.274;8.040;2022-10-16T12:14:22;3.38;;;1.83;;
71366;SDS011;60030;52.274;8.040;2022-10-16T12:17:04;4.55;;;1.60;;
71366;SDS011;60030;52.274;8.040;2022-10-16T12:19:57;3.00;;;1.40;;
71366;SDS011;60030;52.274;8.040;2022-10-16T12:22:28;4.78;;;1.98;;
71366;SDS011;60030;52.274;8.040;2022-10-16T12:24:57;5.88;;;1.67;;
71366;SDS011;60030;52.274;8.040;2022-10-16T12:27:27;4.20;;;1.90;;
71366;SDS011;60030;52.274;8.040;2022-10-16T12:29:57;2.25;;;1.23;;
71366;SDS011;60030;52.274;8.040;2022-10-16T12:32:28;5.05;;;1.50;;
71366;SDS011;60030;52.274;8.040;2022-10-16T12:34:58;3.33;;;1.65;;
71366;SDS011;60030;52.274;8.040;2022-10-16T12:37:29;4.63;;;1.85;;
71366;SDS011;60030;52.274;8.040;2022-10-16T12:39:59;6.88;;;1.77;;
71366;SDS011;60030;52.274;8.040;2022-10-16T12:42:37;5.65;;;1.90;;
71366;SDS011;60030;52.274;8.040;2022-10-16T12:45:13;3.58;;;1.38;;
71366;SDS011;60030;52.274;8.040;2022-10-16T12:47:52;4.72;;;1.75;;
71366;SDS011;60030;52.274;8.040;2022-10-16T12:50:24;4.40;;;1.45;;
71366;SDS011;60030;52.274;8.040;2022-10-16T12:52:57;2.42;;;1.27;;
71366;SDS011;60030;52.274;8.040;2022-10-16T12:55:24;4.07;;;1.27;;
71366;SDS011;60030;52.274;8.040;2022-10-16T13:00:50;3.92;;;1.48;;
71366;SDS011;60030;52.274;8.040;2022-10-16T13:03:37;2.30;;;1.20;;
71366;SDS011;60030;52.274;8.040;2022-10-16T13:06:15;3.08;;;1.02;;
71366;SDS011;60030;52.274;8.040;2022-10-16T13:08:55;3.53;;;0.80;;
71366;SDS011;60030;52.274;8.040;2022-10-16T13:11:38;2.88;;;1.08;;
71366;SDS011;60030;52.274;8.040;2022-10-16T13:14:21;4.20;;;1.17;;
71366;SDS011;60030;52.274;8.040;2022-10-16T13:17:10;4.03;;;1.40;;
71366;SDS011;60030;52.274;8.040;2022-10-16T13:19:46;4.45;;;1.00;;
71366;SDS011;60030;52.274;8.040;2022-10-16T13:22:21;2.08;;;0.95;;
71366;SDS011;60030;52.274;8.040;2022-10-16T13:25:01;2.50;;;0.90;;
71366;SDS011;60030;52.274;8.040;2022-10-16T13:27:41;4.90;;;0.90;;
71366;SDS011;60030;52.274;8.040;2022-10-16T13:30:17;2.13;;;0.98;;
71366;SDS011;60030;52.274;8.040;2022-10-16T13:32:47;2.97;;;0.90;;
71366;SDS011;60030;52.274;8.040;2022-10-16T13:35:20;3.95;;;0.95;;
71366;SDS011;60030;52.274;8.040;2022-10-16T13:37:49;2.88;;;0.95;;
71366;SDS011;60030;52.274;8.040;2022-10-16T13:40:21;4.40;;;1.05;;
71366;SDS011;60030;52.274;8.040;2022-10-16T13:42:49;5.60;;;1.55;;
71366;SDS011;60030;52.274;8.040;2022-10-16T13:45:18;3.80;;;0.80;;
71366;SDS011;60030;52.274;8.040;2022-10-16T13:47:46;3.33;;;0.93;;
71366;SDS011;60030;52.274;8.040;2022-10-16T13:50:13;4.38;;;0.90;;
71366;SDS011;60030;52.274;8.040;2022-10-16T13:52:42;4.28;;;0.95;;
71366;SDS011;60030;52.274;8.040;2022-10-16T13:55:10;2.55;;;1.00;;
71366;SDS011;60030;52.274;8.040;2022-10-16T13:57:39;3.42;;;1.20;;
71366;SDS011;60030;52.274;8.040;2022-10-16T14:00:17;3.58;;;2.00;;
71366;SDS011;60030;52.274;8.040;2022-10-16T14:02:49;5.18;;;1.98;;
71366;SDS011;60030;52.274;8.040;2022-10-16T14:05:18;3.83;;;1.55;;
71366;SDS011;60030;52.274;8.040;2022-10-16T14:07:47;4.78;;;2.13;;
71366;SDS011;60030;52.274;8.040;2022-10-16T14:10:21;3.63;;;1.20;;
71366;SDS011;60030;52.274;8.040;2022-10-16T14:12:55;3.35;;;1.30;;
71366;SDS011;60030;52.274;8.040;2022-10-16T14:15:24;4.93;;;1.10;;
71366;SDS011;60030;52.274;8.040;2022-10-16T14:17:52;2.28;;;1.00;;
71366;SDS011;60030;52.274;8.040;2022-10-16T14:20:20;4.38;;;1.05;;
71366;SDS011;60030;52.274;8.040;2022-10-16T14:23:02;5.85;;;1.25;;
71366;SDS011;60030;52.274;8.040;2022-10-16T14:25:31;4.13;;;0.85;;
71366;SDS011;60030;52.274;8.040;2022-10-16T14:28:01;3.00;;;1.13;;
71366;SDS011;60030;52.274;8.040;2022-10-16T14:30:30;2.00;;;0.93;;
71366;SDS011;60030;52.274;8.040;2022-10-16T14:32:59;4.18;;;1.15;;
71366;SDS011;60030;52.274;8.040;2022-10-16T14:35:28;3.35;;;1.20;;
71366;SDS011;60030;52.274;8.040;2022-10-16T14:37:57;5.35;;;0.90;;
71366;SDS011;60030;52.274;8.040;2022-10-16T14:40:26;6.47;;;1.33;;
71366;SDS011;60030;52.274;8.040;2022-10-16T14:42:55;3.25;;;1.00;;
71366;SDS011;60030;52.274;8.040;2022-10-16T14:45:25;6.65;;;1.20;;
71366;SDS011;60030;52.274;8.040;2022-10-16T14:47:54;3.80;;;0.95;;
71366;SDS011;60030;52.274;8.040;2022-10-16T14:50:24;3.42;;;1.20;;
71366;SDS011;60030;52.274;8.040;2022-10-16T14:52:51;3.33;;;0.90;;
71366;SDS011;60030;52.274;8.040;2022-10-16T14:55:18;4.97;;;1.00;;
71366;SDS011;60030;52.274;8.040;2022-10-16T14:57:45;3.83;;;1.02;;
71366;SDS011;60030;52.274;8.040;2022-10-16T15:00:15;3.45;;;1.10;;
71366;SDS011;60030;52.274;8.040;2022-10-16T15:02:46;7.65;;;1.08;;
71366;SDS011;60030;52.274;8.040;2022-10-16T15:05:15;2.92;;;1.08;;
71366;SDS011;60030;52.274;8.040;2022-10-16T15:07:45;4.15;;;0.98;;
71366;SDS011;60030;52.274;8.040;2022-10-16T15:10:12;10.88;;;6.82;;
71366;SDS011;60030;52.274;8.040;2022-10-16T15:12:40;5.03;;;1.10;;
71366;SDS011;60030;52.274;8.040;2022-10-16T15:18:00;7.60;;;1.85;;